createdAt,value
2022-09-10T00:03:04.033Z,93.80
2022-09-10T00:06:05.045Z,93.80
2022-09-10T00:09:07.018Z,93.80
2022-09-10T00:12:08.024Z,93.80
2022-09-10T00:15:09.029Z,93.80
2022-09-10T00:18:10.033Z,93.80
2022-09-10T00:21:12.035Z,93.80
2022-09-10T00:24:14.004Z,93.90
2022-09-10T00:27:15.029Z,93.90
2022-09-10T00:30:16.100Z,93.90
2022-09-10T00:33:17.027Z,93.90
2022-09-10T00:36:27.019Z,93.90
2022-09-10T00:39:31.048Z,93.90
2022-09-10T00:42:32.030Z,93.90
2022-09-10T00:45:39.054Z,94.00
2022-09-10T00:48:43.997Z,94.00
2022-09-10T00:51:48.068Z,94.00
2022-09-10T00:54:52.043Z,94.00
2022-09-10T00:57:54.059Z,94.00
2022-09-10T01:00:55.059Z,94.00
2022-09-10T01:03:58.006Z,94.00
2022-09-10T01:07:01.010Z,94.00
2022-09-10T01:10:03.077Z,94.00
2022-09-10T01:13:15.070Z,93.90
2022-09-10T01:16:42.027Z,93.90
2022-09-10T01:20:26.059Z,93.90
2022-09-10T01:24:14.065Z,93.80
2022-09-10T01:27:49.058Z,93.80
2022-09-10T01:30:57.074Z,93.90
2022-09-10T01:34:15.099Z,94.00
2022-09-10T01:37:22.081Z,93.90
2022-09-10T01:40:24.068Z,94.00
2022-09-10T01:43:29.076Z,94.00
2022-09-10T01:46:39.084Z,94.00
2022-09-10T01:49:53.101Z,94.10
2022-09-10T01:53:21.088Z,94.20
2022-09-10T01:56:37.090Z,94.30
2022-09-10T01:59:54.370Z,94.20
2022-09-10T02:03:20.100Z,94.20
2022-09-10T02:06:26.079Z,94.20
2022-09-10T02:09:29.104Z,94.30
2022-09-10T02:12:36.116Z,94.30
2022-09-10T02:16:10.129Z,94.30
2022-09-10T02:19:06.090Z,94.30
2022-09-10T02:22:09.071Z,94.20
2022-09-10T02:25:10.102Z,94.20
2022-09-10T02:28:11.058Z,94.10
2022-09-10T02:31:12.140Z,94.10
2022-09-10T02:34:13.056Z,94.10
2022-09-10T02:37:15.112Z,94.10
2022-09-10T02:40:17.058Z,94.20
2022-09-10T02:43:18.122Z,94.30
2022-09-10T02:46:20.132Z,94.30
2022-09-10T02:49:21.068Z,94.30
2022-09-10T02:52:22.117Z,94.30
2022-09-10T02:55:23.120Z,94.20
2022-09-10T02:58:24.131Z,94.20
2022-09-10T03:01:29.151Z,94.20
2022-09-10T03:04:32.130Z,94.30
2022-09-10T03:07:33.132Z,94.20
2022-09-10T03:10:34.136Z,94.20
2022-09-10T03:13:35.200Z,94.20
2022-09-10T03:16:36.153Z,94.20
2022-09-10T03:19:38.114Z,94.20
2022-09-10T03:22:39.099Z,94.20
2022-09-10T03:25:42.082Z,94.20
2022-09-10T03:28:44.132Z,94.10
2022-09-10T03:31:47.148Z,94.10
2022-09-10T03:34:49.107Z,94.10
2022-09-10T03:37:51.136Z,94.00
2022-09-10T03:40:52.145Z,94.00
2022-09-10T03:43:53.159Z,94.00
2022-09-10T03:46:55.152Z,94.10
2022-09-10T03:49:57.138Z,94.20
2022-09-10T03:52:58.434Z,94.30
2022-09-10T03:56:02.148Z,94.30
2022-09-10T03:59:03.139Z,94.20
2022-09-10T04:02:12.188Z,94.30
2022-09-10T04:05:14.139Z,94.30
2022-09-10T04:08:16.159Z,94.30
2022-09-10T04:11:18.154Z,94.40
2022-09-10T04:14:12.149Z,94.40
2022-09-10T04:17:14.151Z,94.40
2022-09-10T04:20:17.120Z,94.30
2022-09-10T04:23:20.165Z,94.30
2022-09-10T04:26:30.174Z,94.30
2022-09-10T04:29:32.166Z,94.20
2022-09-10T04:32:33.178Z,94.30
2022-09-10T04:35:34.167Z,94.30
2022-09-10T04:38:37.160Z,94.30
2022-09-10T04:41:40.175Z,94.30
2022-09-10T04:44:41.187Z,94.20
2022-09-10T04:47:42.168Z,94.20
2022-09-10T04:50:59.430Z,94.20
2022-09-10T04:54:07.148Z,94.20
2022-09-10T04:57:08.183Z,94.20
2022-09-10T05:00:09.283Z,94.20
2022-09-10T05:03:12.179Z,94.10
2022-09-10T05:06:13.157Z,94.20
2022-09-10T05:09:14.184Z,94.10
2022-09-10T05:12:15.173Z,94.10
2022-09-10T05:15:16.192Z,94.20
2022-09-10T05:18:18.211Z,94.20
2022-09-10T05:21:20.164Z,94.30
2022-09-10T05:24:22.219Z,94.20
2022-09-10T05:27:23.203Z,94.20
2022-09-10T05:30:24.188Z,94.20
2022-09-10T05:33:25.273Z,94.30
2022-09-10T05:36:27.210Z,94.30
2022-09-10T05:39:28.166Z,94.30
2022-09-10T05:42:29.204Z,94.30
2022-09-10T05:45:30.358Z,94.30
2022-09-10T05:48:32.230Z,94.30
2022-09-10T05:51:29.208Z,94.40
2022-09-10T05:54:31.236Z,94.30
2022-09-10T05:57:32.226Z,94.30
2022-09-10T06:00:33.226Z,94.30
2022-09-10T06:03:35.240Z,94.30
2022-09-10T06:06:36.223Z,94.20
2022-09-10T06:09:39.208Z,94.20
2022-09-10T06:13:02.187Z,94.20
2022-09-10T06:16:03.310Z,94.10
2022-09-10T06:19:05.207Z,93.90
2022-09-10T06:22:06.192Z,93.90
2022-09-10T06:25:09.196Z,93.80
2022-09-10T06:28:10.234Z,93.60
2022-09-10T06:31:12.271Z,93.50
2022-09-10T06:34:13.199Z,93.50
2022-09-10T06:37:14.246Z,93.60
2022-09-10T06:40:08.252Z,93.80
2022-09-10T06:43:10.268Z,93.70
2022-09-10T06:47:19.648Z,93.40
2022-09-10T06:50:02.256Z,93.00
2022-09-10T06:53:05.211Z,92.70
2022-09-10T06:56:07.294Z,92.60
2022-09-10T06:59:08.248Z,92.60
2022-09-10T07:02:12.296Z,92.60
2022-09-10T07:05:13.255Z,92.70
2022-09-10T07:08:15.284Z,92.70
2022-09-10T07:11:24.264Z,92.80
2022-09-10T07:14:27.278Z,92.80
2022-09-10T07:17:32.082Z,92.70
2022-09-10T07:20:35.258Z,92.50
2022-09-10T07:23:36.241Z,92.30
2022-09-10T07:26:38.232Z,92.20
2022-09-10T07:29:39.292Z,92.20
2022-09-10T07:32:47.223Z,92.10
2022-09-10T07:35:52.240Z,92.20
2022-09-10T07:38:56.280Z,92.30
2022-09-10T07:42:00.297Z,92.20
2022-09-10T07:45:03.243Z,92.30
2022-09-10T07:48:04.291Z,92.30
2022-09-10T07:51:05.279Z,92.30
2022-09-10T07:54:08.254Z,92.30
2022-09-10T07:57:06.291Z,92.20
2022-09-10T08:00:07.399Z,92.20
2022-09-10T08:03:16.311Z,92.00
2022-09-10T08:06:18.295Z,91.60
2022-09-10T08:09:21.315Z,91.30
2022-09-10T08:12:24.361Z,91.40
2022-09-10T08:15:25.311Z,91.20
2022-09-10T08:18:28.263Z,90.40
2022-09-10T08:21:32.311Z,90.50
2022-09-10T08:24:33.292Z,90.50
2022-09-10T08:27:34.335Z,90.40
2022-09-10T08:30:35.280Z,90.30
2022-09-10T08:33:36.528Z,90.20
2022-09-10T08:36:37.313Z,90.20
2022-09-10T08:39:38.353Z,90.20
2022-09-10T08:42:54.324Z,90.20
2022-09-10T08:46:05.352Z,89.10
2022-09-10T08:49:18.315Z,89.40
2022-09-10T08:52:46.325Z,89.20
2022-09-10T08:55:54.323Z,88.40
2022-09-10T08:59:11.331Z,88.20
2022-09-10T09:02:31.632Z,88.40
2022-09-10T09:05:38.383Z,88.40
2022-09-10T09:08:49.355Z,88.50
2022-09-10T09:12:12.324Z,87.30
2022-09-10T09:15:44.332Z,87.50
2022-09-10T09:19:32.364Z,87.30
2022-09-10T09:22:52.335Z,86.50
2022-09-10T09:26:03.354Z,86.30
2022-09-10T09:29:19.342Z,86.00
2022-09-10T09:32:20.319Z,85.20
2022-09-10T09:35:46.376Z,84.50
2022-09-10T09:38:53.376Z,84.80
2022-09-10T09:42:38.349Z,83.40
2022-09-10T09:46:00.428Z,83.20
2022-09-10T09:49:02.341Z,81.90
2022-09-10T09:52:03.365Z,80.70
2022-09-10T09:55:15.187Z,80.30
2022-09-10T09:58:34.379Z,79.30
2022-09-10T10:01:40.456Z,79.00
2022-09-10T10:04:43.378Z,79.30
2022-09-10T10:07:48.388Z,78.80
2022-09-10T10:10:49.402Z,80.40
2022-09-10T10:13:59.351Z,77.40
2022-09-10T10:17:02.401Z,77.10
2022-09-10T10:20:21.394Z,77.60
2022-09-10T10:23:47.390Z,77.10
2022-09-10T10:26:50.382Z,75.10
2022-09-10T10:29:52.360Z,74.90
2022-09-10T10:33:12.402Z,76.20
2022-09-10T10:36:19.555Z,76.70
2022-09-10T10:39:42.445Z,75.20
2022-09-10T10:42:48.372Z,76.60
2022-09-10T10:45:49.399Z,76.90
2022-09-10T10:49:09.392Z,76.80
2022-09-10T10:52:32.416Z,76.50
2022-09-10T10:55:38.378Z,77.60
2022-09-10T10:58:45.439Z,77.90
2022-09-10T11:01:55.483Z,75.40
2022-09-10T11:05:00.430Z,75.90
2022-09-10T11:08:03.423Z,76.70
2022-09-10T11:11:13.424Z,75.70
2022-09-10T11:14:29.431Z,75.30
2022-09-10T11:17:45.587Z,75.00
2022-09-10T11:20:51.426Z,75.00
2022-09-10T11:24:06.431Z,75.50
2022-09-10T11:27:22.414Z,74.90
2022-09-10T11:30:29.446Z,75.50
2022-09-10T11:33:55.425Z,75.80
2022-09-10T11:37:09.391Z,74.30
2022-09-10T11:40:16.531Z,73.90
2022-09-10T11:43:23.446Z,72.90
2022-09-10T11:46:34.504Z,71.80
2022-09-10T11:49:45.497Z,71.70
2022-09-10T11:52:47.448Z,72.40
2022-09-10T11:56:22.455Z,73.20
2022-09-10T11:59:41.440Z,73.30
2022-09-10T12:02:59.468Z,72.60
2022-09-10T12:06:09.455Z,71.30
2022-09-10T12:09:23.486Z,70.40
2022-09-10T12:12:33.447Z,71.80
2022-09-10T12:15:44.522Z,72.00
2022-09-10T12:18:55.465Z,72.40
2022-09-10T12:22:04.488Z,71.60
2022-09-10T12:25:33.591Z,71.60
2022-09-10T12:29:06.483Z,71.00
2022-09-10T12:32:18.464Z,70.80
2022-09-10T12:35:44.478Z,70.30
2022-09-10T12:39:07.427Z,71.10
2022-09-10T12:42:16.489Z,71.40
2022-09-10T12:45:17.443Z,71.40
2022-09-10T12:48:27.133Z,71.40
2022-09-10T12:51:39.488Z,70.10
2022-09-10T12:54:55.492Z,69.90
2022-09-10T12:58:18.438Z,69.70
2022-09-10T13:01:38.562Z,69.30
2022-09-10T13:04:53.489Z,68.10
2022-09-10T13:07:58.493Z,68.80
2022-09-10T13:11:37.482Z,68.70
2022-09-10T13:14:52.521Z,68.00
2022-09-10T13:18:13.591Z,66.00
2022-09-10T13:21:37.513Z,65.40
2022-09-10T13:24:47.494Z,65.40
2022-09-10T13:27:51.523Z,65.90
2022-09-10T13:30:52.522Z,66.00
2022-09-10T13:34:05.485Z,64.50
2022-09-10T13:37:18.515Z,64.60
2022-09-10T13:40:41.562Z,64.90
2022-09-10T13:44:01.345Z,64.60
2022-09-10T13:47:08.528Z,63.00
2022-09-10T13:50:14.546Z,64.40
2022-09-10T13:53:19.561Z,65.30
2022-09-10T13:56:38.005Z,65.30
2022-09-10T13:59:42.909Z,64.90
2022-09-10T14:03:16.496Z,64.70
2022-09-10T14:06:33.899Z,65.00
2022-09-10T14:09:35.898Z,65.70
2022-09-10T14:12:41.022Z,66.00
2022-09-10T14:15:48.876Z,66.00
2022-09-10T14:18:58.927Z,65.60
2022-09-10T14:22:09.970Z,65.70
2022-09-10T14:25:15.885Z,66.10
2022-09-10T14:28:34.868Z,65.90
2022-09-10T14:31:40.946Z,65.70
2022-09-10T14:34:47.865Z,65.50
2022-09-10T14:37:51.917Z,65.90
2022-09-10T14:40:52.890Z,66.10
2022-09-10T14:43:53.924Z,66.10
2022-09-10T14:47:09.888Z,65.30
2022-09-10T14:50:41.920Z,65.80
2022-09-10T14:53:35.917Z,66.20
2022-09-10T14:56:44.936Z,66.60
2022-09-10T14:59:46.880Z,66.90
2022-09-10T15:02:47.927Z,67.00
2022-09-10T15:05:48.947Z,67.90
2022-09-10T15:08:49.898Z,68.20
2022-09-10T15:11:53.971Z,67.60
2022-09-10T15:14:54.932Z,67.70
2022-09-10T15:17:55.964Z,67.50
2022-09-10T15:20:56.953Z,68.60
2022-09-10T15:23:57.967Z,68.30
2022-09-10T15:27:00.115Z,68.60
2022-09-10T15:30:00.907Z,68.20
2022-09-10T15:33:01.906Z,68.20
2022-09-10T15:36:03.121Z,68.80
2022-09-10T15:39:05.903Z,69.00
2022-09-10T15:42:06.911Z,69.40
2022-09-10T15:45:07.931Z,69.10
2022-09-10T15:48:08.969Z,69.30
2022-09-10T15:51:12.919Z,69.80
2022-09-10T15:54:13.988Z,68.40
2022-09-10T15:57:14.955Z,67.30
2022-09-10T16:00:18.930Z,66.90
2022-09-10T16:03:20.042Z,67.20
2022-09-10T16:06:21.947Z,68.40
2022-09-10T16:09:24.994Z,68.60
2022-09-10T16:12:26.009Z,68.30
2022-09-10T16:15:26.962Z,68.60
2022-09-10T16:18:27.991Z,68.80
2022-09-10T16:21:32.940Z,68.50
2022-09-10T16:24:27.000Z,68.60
2022-09-10T16:27:27.987Z,68.60
2022-09-10T16:30:29.004Z,68.60
2022-09-10T16:33:29.990Z,68.90
2022-09-10T16:36:31.965Z,69.10
2022-09-10T16:39:34.055Z,69.10
2022-09-10T16:42:36.007Z,69.40
2022-09-10T16:45:38.001Z,69.70
2022-09-10T16:48:39.029Z,70.10
2022-09-10T16:51:41.004Z,70.00
2022-09-10T16:54:42.084Z,69.70
2022-09-10T16:57:42.998Z,70.00
2022-09-10T17:00:43.963Z,70.00
2022-09-10T17:03:45.010Z,69.80
2022-09-10T17:06:46.007Z,69.70
2022-09-10T17:09:46.984Z,69.70
2022-09-10T17:12:48.975Z,69.00
2022-09-10T17:15:51.047Z,69.20
2022-09-10T17:18:51.976Z,69.50
2022-09-10T17:21:58.039Z,69.80
2022-09-10T17:25:00.007Z,70.00
2022-09-10T17:28:01.036Z,70.00
2022-09-10T17:31:03.065Z,70.10
2022-09-10T17:34:05.107Z,70.10
2022-09-10T17:37:06.047Z,69.70
2022-09-10T17:40:07.043Z,69.00
2022-09-10T17:43:08.041Z,68.10
2022-09-10T17:46:10.015Z,67.40
2022-09-10T17:49:12.056Z,67.40
2022-09-10T17:52:12.999Z,67.00
2022-09-10T17:55:14.070Z,66.10
2022-09-10T17:58:15.003Z,65.30
2022-09-10T18:01:22.656Z,65.40
2022-09-10T18:04:25.168Z,65.60
2022-09-10T18:07:26.243Z,65.80
2022-09-10T18:10:27.021Z,65.60
2022-09-10T18:13:28.028Z,65.50
2022-09-10T18:16:24.028Z,65.60
2022-09-10T18:19:28.027Z,65.70
2022-09-10T18:22:29.082Z,66.00
2022-09-10T18:25:30.069Z,66.70
2022-09-10T18:28:31.245Z,67.60
2022-09-10T18:31:32.091Z,68.40
2022-09-10T18:34:36.107Z,69.40
2022-09-10T18:37:37.188Z,70.20
2022-09-10T18:40:38.083Z,71.10
2022-09-10T18:43:47.254Z,71.90
2022-09-10T18:46:49.100Z,72.90
2022-09-10T18:50:02.891Z,73.90
2022-09-10T18:52:30.701Z,75.20
2022-09-10T18:54:58.336Z,75.50
2022-09-10T18:57:26.149Z,76.10
2022-09-10T18:59:55.151Z,76.60
2022-09-10T19:02:22.790Z,77.00
2022-09-10T19:05:10.111Z,77.40
2022-09-10T19:07:38.284Z,77.80
2022-09-10T19:10:07.254Z,78.20
2022-09-10T19:12:35.104Z,78.70
2022-09-10T19:15:02.730Z,79.20
2022-09-10T19:17:30.389Z,79.70
2022-09-10T19:19:58.142Z,80.20
2022-09-10T19:22:25.702Z,80.50
2022-09-10T19:24:55.204Z,80.80
2022-09-10T19:27:24.286Z,81.10
2022-09-10T19:29:52.237Z,81.40
2022-09-10T19:32:20.260Z,81.60
2022-09-10T19:34:51.775Z,81.50
2022-09-10T19:37:20.330Z,81.80
2022-09-10T19:39:48.034Z,82.00
2022-09-10T19:42:16.393Z,82.40
2022-09-10T19:44:43.900Z,82.60
2022-09-10T19:47:11.781Z,82.70
2022-09-10T19:49:39.287Z,82.90
2022-09-10T19:52:06.806Z,83.20
2022-09-10T19:54:35.137Z,83.50
2022-09-10T19:57:02.881Z,83.70
2022-09-10T19:59:31.574Z,83.90
2022-09-10T20:01:59.226Z,84.10
2022-09-10T20:04:28.220Z,84.30
2022-09-10T20:06:55.647Z,84.50
2022-09-10T20:09:24.367Z,84.70
2022-09-10T20:11:53.687Z,84.50
2022-09-10T20:14:21.206Z,84.70
2022-09-10T20:16:48.859Z,84.90
2022-09-10T20:19:18.499Z,85.10
2022-09-10T20:21:47.878Z,85.20
2022-09-10T20:24:19.935Z,85.40
2022-09-10T20:26:49.320Z,85.70
2022-09-10T20:29:18.495Z,85.80
2022-09-10T20:31:47.070Z,86.00
2022-09-10T20:34:25.498Z,86.20
2022-09-10T20:36:53.338Z,86.30
2022-09-10T20:39:26.920Z,86.40
2022-09-10T20:41:54.503Z,86.50
2022-09-10T20:44:23.021Z,86.60
2022-09-10T20:46:50.571Z,86.70
2022-09-10T20:49:18.416Z,86.90
2022-09-10T20:51:46.009Z,87.00
2022-09-10T20:54:17.002Z,87.10
2022-09-10T20:56:45.555Z,87.20
2022-09-10T20:59:16.845Z,87.30
2022-09-10T21:01:50.849Z,87.30
2022-09-10T21:04:23.057Z,87.40
2022-09-10T21:06:50.667Z,87.60
2022-09-10T21:09:18.342Z,87.60
2022-09-10T21:11:46.167Z,87.70
2022-09-10T21:14:13.801Z,87.80
2022-09-10T21:16:43.189Z,87.90
2022-09-10T21:19:16.151Z,88.00
2022-09-10T21:21:45.423Z,88.10
2022-09-10T21:24:15.392Z,88.10
2022-09-10T21:26:43.603Z,88.20
2022-09-10T21:29:18.036Z,88.30
2022-09-10T21:31:46.634Z,88.40
2022-09-10T21:34:14.906Z,88.40
2022-09-10T21:36:44.018Z,88.50
2022-09-10T21:39:16.453Z,88.60
2022-09-10T21:41:50.272Z,88.70
2022-09-10T21:44:20.260Z,88.80
2022-09-10T21:46:54.888Z,88.80
2022-09-10T21:49:24.671Z,88.90
2022-09-10T21:51:52.364Z,88.90
2022-09-10T21:54:22.009Z,88.90
2022-09-10T21:56:51.843Z,89.00
2022-09-10T21:59:21.595Z,89.10
2022-09-10T22:01:50.349Z,89.10
2022-09-10T22:04:22.383Z,89.20
2022-09-10T22:06:52.010Z,89.20
2022-09-10T22:09:20.667Z,89.30
2022-09-10T22:11:51.240Z,89.30
2022-09-10T22:14:22.275Z,89.40
2022-09-10T22:16:52.390Z,89.50
2022-09-10T22:19:23.752Z,89.50
2022-09-10T22:21:54.407Z,89.50
2022-09-10T22:24:23.454Z,89.50
2022-09-10T22:26:52.029Z,89.50
2022-09-10T22:29:20.506Z,89.60
2022-09-10T22:31:49.583Z,89.60
2022-09-10T22:34:18.386Z,89.60
2022-09-10T22:36:48.253Z,89.70
2022-09-10T22:39:22.506Z,89.80
2022-09-10T22:41:51.323Z,90.00
2022-09-10T22:44:20.001Z,90.10
2022-09-10T22:46:48.070Z,90.10
2022-09-10T22:49:16.155Z,90.10
2022-09-10T22:51:44.125Z,90.20
2022-09-10T22:54:12.810Z,90.20
2022-09-10T22:56:40.586Z,90.20
2022-09-10T22:59:11.281Z,90.20
2022-09-10T23:01:39.590Z,90.20
2022-09-10T23:04:09.418Z,90.30
2022-09-10T23:06:38.334Z,90.40
2022-09-10T23:09:12.583Z,90.40
2022-09-10T23:11:41.841Z,90.30
2022-09-10T23:14:13.082Z,90.30
2022-09-10T23:16:43.030Z,90.40
2022-09-10T23:19:15.292Z,90.50
2022-09-10T23:21:45.671Z,90.40
2022-09-10T23:24:15.813Z,90.40
2022-09-10T23:26:44.318Z,90.50
2022-09-10T23:29:12.789Z,90.60
2022-09-10T23:31:41.038Z,90.80
2022-09-10T23:34:14.175Z,90.90
2022-09-10T23:36:43.919Z,90.80
2022-09-10T23:39:20.230Z,90.80
2022-09-10T23:41:52.863Z,90.90
2022-09-10T23:44:21.034Z,91.00
2022-09-10T23:46:49.021Z,90.90
2022-09-10T23:49:16.643Z,90.90
2022-09-10T23:51:44.422Z,90.90
2022-09-10T23:54:12.100Z,90.90
2022-09-10T23:56:40.170Z,90.90
2022-09-10T23:59:08.456Z,90.90
